Time;durP1;ratioP1;P1;durP2;ratioP2;P2;SDS_P1;SDS_P2;PMS_P1;PMS_P2;Temp;Humidity;BMP_temperature;BMP_pressure;BME280_temperature;BME280_humidity;BME280_pressure;Samples;Min_cycle;Max_cycle;Signal;HPM_P1;HPM_P2
2024/03/11 00:02:00;;;;;;;;;;;;;;;;;;137448;1270;22511;-75
2024/03/11 00:05:01;;;;;;;;;;;;;;;;;;137885;1270;22600;-79
2024/03/11 00:08:02;;;;;;;;;;;;;;;;;;137928;1270;22476;-77
2024/03/11 00:11:05;;;;;;;;;;;;;;;;;;137886;1271;22588;-77
2024/03/11 00:14:06;;;;;;;;;;;;;;;;;;137576;1270;22569;-78
2024/03/11 00:17:08;;;;;;;;;;;;;;;;;;137805;1270;23003;-78
2024/03/11 00:20:09;;;;;;;;;;;;;;;;;;137603;1270;22895;-76
2024/03/11 00:23:10;;;;;;;;;;;;;;;;;;137592;1270;22479;-77
2024/03/11 00:26:11;;;;;;;;;;;;;;;;;;137880;1270;22534;-77
2024/03/11 00:29:14;;;;;;;;;;;;;;;;;;137608;1270;22501;-77
2024/03/11 00:32:16;;;;;;;;;;;;;;;;;;137524;1270;22528;-77
2024/03/11 00:35:17;;;;;;;;;;;;;;;;;;137663;1271;22515;-78
2024/03/11 00:38:18;;;;;;;;;;;;;;;;;;137735;1270;22523;-77
2024/03/11 00:41:19;;;;;;;;;;;;;;;;;;137531;1270;22490;-77
2024/03/11 00:44:21;;;;;;;;;;;;;;;;;;137521;1270;22537;-77
2024/03/11 00:47:22;;;;;;;;;;;;;;;;;;137889;1270;22493;-78
2024/03/11 00:50:24;;;;;;;;;;;;;;;;;;137610;1270;22622;-76
2024/03/11 00:53:25;;;;;;;;;;;;;;;;;;137583;1270;23004;-79
2024/03/11 00:56:27;;;;;;;;;;;;;;;;;;137698;1271;22570;-79
2024/03/11 00:59:28;;;;;;;;;;;;;;;;;;137682;1270;22506;-77
2024/03/11 01:02:29;;;;;;;;;;;;;;;;;;137550;1270;22519;-77
2024/03/11 01:05:31;;;;;;;;;;;;;;;;;;137877;1271;22292;-78
2024/03/11 01:08:33;;;;;;;;;;;;;;;;;;137684;1270;22492;-77
2024/03/11 01:11:34;;;;;;;;;;;;;;;;;;137606;1266;22536;-78
2024/03/11 01:14:36;;;;;;;;;;;;;;;;;;137622;1270;22512;-81
2024/03/11 01:17:37;;;;;;;;;;;;;;;;;;137883;1271;22517;-78
2024/03/11 01:20:39;;;;;;;;;;;;;;;;;;137640;1271;22524;-79
2024/03/11 01:23:40;;;;;;;;;;;;;;;;;;137600;1270;22504;-79
2024/03/11 01:26:41;;;;;;;;;;;;;;;;;;137822;1270;23028;-77
2024/03/11 01:29:42;;;;;;;;;;;;;;;;;;137550;1270;22509;-77
2024/03/11 01:32:44;;;;;;;;;;;;;;;;;;137528;1270;22547;-77
2024/03/11 01:35:45;;;;;;;;;;;;;;;;;;137755;1271;22495;-78
2024/03/11 01:38:46;;;;;;;;;;;;;;;;;;137557;1270;22567;-77
2024/03/11 01:41:48;;;;;;;;;;;;;;;;;;137646;1271;22487;-77
2024/03/11 01:44:49;;;;;;;;;;;;;;;;;;137670;1271;25871;-77
2024/03/11 01:47:51;;;;;;;;;;;;;;;;;;137721;1271;22497;-77
2024/03/11 01:50:54;;;;;;;;;;;;;;;;;;137395;1270;22939;-77
2024/03/11 01:53:55;;;;;;;;;;;;;;;;;;137576;1265;22910;-77
2024/03/11 01:56:56;;;;;;;;;;;;;;;;;;137853;1271;22413;-77
2024/03/11 01:59:57;;;;;;;;;;;;;;;;;;137549;1270;22545;-78
2024/03/11 02:02:59;;;;;;;;;;;;;;;;;;137688;1271;22943;-79
2024/03/11 02:06:00;;;;;;;;;;;;;;;;;;137750;1271;22483;-79
2024/03/11 02:09:03;;;;;;;;;;;;;;;;;;137645;1271;23006;-78
2024/03/11 02:12:05;;;;;;;;;;;;;;;;;;137745;1270;23103;-79
2024/03/11 02:15:06;;;;;;;;;;;;;;;;;;137734;1271;22483;-79
2024/03/11 02:18:07;;;;;;;;;;;;;;;;;;137667;1271;22537;-78
2024/03/11 02:21:08;;;;;;;;;;;;;;;;;;137602;1271;22567;-78
2024/03/11 02:24:09;;;;;;;;;;;;;;;;;;137546;1267;22499;-78
2024/03/11 02:27:10;;;;;;;;;;;;;;;;;;137804;1271;22478;-78
2024/03/11 02:30:12;;;;;;;;;;;;;;;;;;137735;1271;22883;-78
2024/03/11 02:33:13;;;;;;;;;;;;;;;;;;137778;1271;22546;-78
2024/03/11 02:36:14;;;;;;;;;;;;;;;;;;137860;1271;22289;-79
2024/03/11 02:39:16;;;;;;;;;;;;;;;;;;137617;1270;22513;-78
2024/03/11 02:42:17;;;;;;;;;;;;;;;;;;137601;1271;22492;-78
2024/03/11 02:45:19;;;;;;;;;;;;;;;;;;137928;1271;22728;-79
2024/03/11 02:48:20;;;;;;;;;;;;;;;;;;137531;1270;22533;-78
2024/03/11 02:51:22;;;;;;;;;;;;;;;;;;137557;1271;22517;-78
2024/03/11 02:54:26;;;;;;;;;;;;;;;;;;137581;1271;22520;-79
2024/03/11 02:57:28;;;;;;;;;;;;;;;;;;137660;1271;22952;-78
2024/03/11 03:00:29;;;;;;;;;;;;;;;;;;137545;1271;22539;-79
2024/03/11 03:03:30;;;;;;;;;;;;;;;;;;137740;1271;22516;-79
2024/03/11 03:06:31;;;;;;;;;;;;;;;;;;137884;1271;22487;-79
2024/03/11 03:09:33;;;;;;;;;;;;;;;;;;137475;1270;22489;-79
2024/03/11 03:12:35;;;;;;;;;;;;;;;;;;137524;1271;22830;-82
2024/03/11 03:15:36;;;;;;;;;;;;;;;;;;137637;1270;22539;-80
2024/03/11 03:18:39;;;;;;;;;;;;;;;;;;137226;1271;22527;-82
2024/03/11 03:21:40;;;;;;;;;;;;;;;;;;137188;1271;22540;-81
2024/03/11 03:24:41;;;;;;;;;;;;;;;;;;137305;1271;22551;-83
2024/03/11 03:27:42;;;;;;;;;;;;;;;;;;137233;1271;22531;-81
2024/03/11 03:30:44;;;;;;;;;;;;;;;;;;137334;1271;22500;-83
2024/03/11 03:33:45;;;;;;;;;;;;;;;;;;137368;1270;22510;-82
2024/03/11 03:36:46;;;;;;;;;;;;;;;;;;136942;1270;22464;-80
2024/03/11 03:39:48;;;;;;;;;;;;;;;;;;137131;1271;25253;-80
2024/03/11 03:42:49;;;;;;;;;;;;;;;;;;136912;1271;22878;-81
2024/03/11 03:45:51;;;;;;;;;;;;;;;;;;137287;1270;22535;-80
2024/03/11 03:48:53;;;;;;;;;;;;;;;;;;137148;1270;22563;-82
2024/03/11 03:51:56;;;;;;;;;;;;;;;;;;137013;1270;22554;-81
2024/03/11 03:55:02;;;;;;;;;;;;;;;;;;137002;1271;22546;-81
2024/03/11 03:58:03;;;;;;;;;;;;;;;;;;136797;1271;22526;-81
2024/03/11 04:01:08;;;;;;;;;;;;;;;;;;137599;1271;22540;-82
2024/03/11 04:04:09;;;;;;;;;;;;;;;;;;137166;1271;22561;-82
2024/03/11 04:07:10;;;;;;;;;;;;;;;;;;137391;1271;22505;-82
2024/03/11 04:10:13;;;;;;;;;;;;;;;;;;137755;1271;22521;-82
2024/03/11 04:13:26;;;;;;;;;;;;;;;;;;137425;1270;22505;-79
2024/03/11 04:16:28;;;;;;;;;;;;;;;;;;137184;1271;22587;-81
2024/03/11 04:19:30;;;;;;;;;;;;;;;;;;137610;1270;22527;-81
2024/03/11 04:22:31;;;;;;;;;;;;;;;;;;137076;1270;22944;-82
2024/03/11 04:25:32;;;;;;;;;;;;;;;;;;137124;1270;22545;-81
2024/03/11 04:28:33;;;;;;;;;;;;;;;;;;137801;1271;22944;-82
2024/03/11 04:31:34;;;;;;;;;;;;;;;;;;137571;1271;22531;-80
2024/03/11 04:34:35;;;;;;;;;;;;;;;;;;137919;1270;22262;-80
2024/03/11 04:37:38;;;;;;;;;;;;;;;;;;137807;1270;22500;-80
2024/03/11 04:40:39;;;;;;;;;;;;;;;;;;137643;1271;22903;-80
2024/03/11 04:43:40;;;;;;;;;;;;;;;;;;137899;1270;22364;-79
2024/03/11 04:46:41;;;;;;;;;;;;;;;;;;137854;1271;22270;-81
2024/03/11 04:49:42;;;;;;;;;;;;;;;;;;137677;1267;22477;-80
2024/03/11 04:52:44;;;;;;;;;;;;;;;;;;137881;1271;22306;-80
2024/03/11 04:55:46;;;;;;;;;;;;;;;;;;137842;1270;22385;-80
2024/03/11 04:58:50;;;;;;;;;;;;;;;;;;137855;1270;22451;-82
2024/03/11 05:01:54;;;;;;;;;;;;;;;;;;137888;1271;22409;-81
2024/03/11 05:04:56;;;;;;;;;;;;;;;;;;137893;1270;22484;-80
2024/03/11 05:07:57;;;;;;;;;;;;;;;;;;137871;1271;22348;-80
2024/03/11 05:10:58;;;;;;;;;;;;;;;;;;137844;1271;22336;-79
2024/03/11 05:14:00;;;;;;;;;;;;;;;;;;137883;1268;22283;-81
2024/03/11 05:17:01;;;;;;;;;;;;;;;;;;137867;1270;22269;-83
2024/03/11 05:20:06;;;;;;;;;;;;;;;;;;137857;1271;22384;-81
2024/03/11 05:23:07;;;;;;;;;;;;;;;;;;137891;1270;22565;-81
2024/03/11 05:26:08;;;;;;;;;;;;;;;;;;137865;1270;22387;-80
2024/03/11 05:29:13;;;;;;;;;;;;;;;;;;137881;1271;22317;-80
2024/03/11 05:32:17;;;;;;;;;;;;;;;;;;137903;1271;22961;-80
2024/03/11 05:35:19;;;;;;;;;;;;;;;;;;137872;1270;22352;-80
2024/03/11 05:38:20;;;;;;;;;;;;;;;;;;137883;1266;22288;-81
2024/03/11 05:41:21;;;;;;;;;;;;;;;;;;137863;1271;22257;-81
2024/03/11 05:44:22;;;;;;;;;;;;;;;;;;137676;1270;24994;-80
2024/03/11 05:47:25;;;;;;;;;;;;;;;;;;137841;1271;22375;-81
2024/03/11 05:50:26;;;;;;;;;;;;;;;;;;137848;1270;22263;-81
2024/03/11 05:53:28;;;;;;;;;;;;;;;;;;137918;1270;22341;-81
2024/03/11 05:56:30;;;;;;;;;;;;;;;;;;137883;1270;22396;-80
2024/03/11 05:59:31;;;;;;;;;;;;;;;;;;137866;1271;22334;-81
2024/03/11 06:02:32;;;;;;;;;;;;;;;;;;137889;1271;22383;-80
2024/03/11 06:05:33;;;;;;;;;;;;;;;;;;137953;1271;22241;-81
2024/03/11 06:08:38;;;;;;;;;;;;;;;;;;137347;1270;22542;-78
2024/03/11 06:11:40;;;;;;;;;;;;;;;;;;137658;1270;22487;-80
2024/03/11 06:14:41;;;;;;;;;;;;;;;;;;137789;1271;22326;-81
2024/03/11 06:17:43;;;;;;;;;;;;;;;;;;137775;1270;22272;-82
2024/03/11 06:20:44;;;;;;;;;;;;;;;;;;137767;1270;22261;-80
2024/03/11 06:23:45;;;;;;;;;;;;;;;;;;137746;1270;22867;-80
2024/03/11 06:26:48;;;;;;;;;;;;;;;;;;137647;1270;22971;-79
2024/03/11 06:29:49;;;;;;;;;;;;;;;;;;137770;1267;22415;-80
2024/03/11 06:32:51;;;;;;;;;;;;;;;;;;137714;1270;22785;-80
2024/03/11 06:35:52;;;;;;;;;;;;;;;;;;137724;1270;22314;-79
2024/03/11 06:38:53;;;;;;;;;;;;;;;;;;137779;1270;22403;-79
2024/03/11 06:41:54;;;;;;;;;;;;;;;;;;135106;1264;3457297;-78
2024/03/11 06:44:55;;;;;;;;;;;;;;;;;;137773;1270;23787;-80
2024/03/11 06:47:57;;;;;;;;;;;;;;;;;;137837;1270;22973;-80
2024/03/11 06:50:58;;;;;;;;;;;;;;;;;;137785;1270;22406;-80
2024/03/11 06:53:59;;;;;;;;;;;;;;;;;;137789;1271;22356;-80
2024/03/11 06:57:01;;;;;;;;;;;;;;;;;;137767;1263;22405;-81
2024/03/11 07:00:02;;;;;;;;;;;;;;;;;;137795;1271;22370;-79
2024/03/11 07:03:03;;;;;;;;;;;;;;;;;;137784;1270;22281;-80
2024/03/11 07:06:05;;;;;;;;;;;;;;;;;;137811;1270;22410;-79
2024/03/11 07:09:07;;;;;;;;;;;;;;;;;;137778;1270;22330;-80
2024/03/11 07:12:08;;;;;;;;;;;;;;;;;;137763;1270;22346;-80
2024/03/11 07:15:10;;;;;;;;;;;;;;;;;;137787;1264;22306;-79
2024/03/11 07:18:11;;;;;;;;;;;;;;;;;;137734;1270;22317;-79
2024/03/11 07:21:12;;;;;;;;;;;;;;;;;;137828;1270;22300;-80
2024/03/11 07:24:15;;;;;;;;;;;;;;;;;;137777;1270;22740;-79
2024/03/11 07:27:19;;;;;;;;;;;;;;;;;;137797;1270;22386;-80
2024/03/11 07:30:22;;;;;;;;;;;;;;;;;;137802;1270;22320;-80
2024/03/11 07:33:24;;;;;;;;;;;;;;;;;;137773;1258;22815;-79
2024/03/11 07:36:26;;;;;;;;;;;;;;;;;;137770;1270;22383;-80
2024/03/11 07:39:30;;;;;;;;;;;;;;;;;;137818;1270;22409;-79
2024/03/11 07:42:32;;;;;;;;;;;;;;;;;;137793;1270;22344;-80
2024/03/11 07:45:33;;;;;;;;;;;;;;;;;;137792;1270;22844;-79
2024/03/11 07:48:34;;;;;;;;;;;;;;;;;;137859;1270;22333;-81
2024/03/11 07:51:36;;;;;;;;;;;;;;;;;;137876;1270;22307;-80
2024/03/11 07:54:40;;;;;;;;;;;;;;;;;;137803;1270;22270;-81
2024/03/11 07:57:41;;;;;;;;;;;;;;;;;;137814;1270;22372;-81
2024/03/11 08:00:48;;;;;;;;;;;;;;;;;;137849;1270;22430;-81
2024/03/11 08:03:51;;;;;;;;;;;;;;;;;;137843;1270;22344;-81
2024/03/11 08:06:52;;;;;;;;;;;;;;;;;;137829;1270;22346;-79
2024/03/11 08:09:55;;;;;;;;;;;;;;;;;;137801;1270;22319;-79
2024/03/11 08:12:57;;;;;;;;;;;;;;;;;;137778;1270;22316;-79
2024/03/11 08:15:58;;;;;;;;;;;;;;;;;;137809;1263;22300;-79
2024/03/11 08:19:00;;;;;;;;;;;;;;;;;;137790;1270;22448;-83
2024/03/11 08:22:03;;;;;;;;;;;;;;;;;;137852;1270;22342;-80
2024/03/11 08:25:07;;;;;;;;;;;;;;;;;;137897;1264;22306;-80
2024/03/11 08:28:10;;;;;;;;;;;;;;;;;;137857;1270;22453;-80
2024/03/11 08:31:11;;;;;;;;;;;;;;;;;;137820;1259;22287;-80
2024/03/11 08:34:16;;;;;;;;;;;;;;;;;;137806;1270;23358;-81
2024/03/11 08:37:17;;;;;;;;;;;;;;;;;;137791;1270;22516;-79
2024/03/11 08:40:19;;;;;;;;;;;;;;;;;;137786;1264;22336;-80
2024/03/11 08:43:20;;;;;;;;;;;;;;;;;;137827;1270;22806;-80
2024/03/11 08:46:21;;;;;;;;;;;;;;;;;;137778;1270;22352;-81
2024/03/11 08:49:24;;;;;;;;;;;;;;;;;;137794;1270;22497;-81
2024/03/11 08:52:25;;;;;;;;;;;;;;;;;;137807;1270;22529;-81
2024/03/11 08:55:26;;;;;;;;;;;;;;;;;;137866;1270;22455;-82
2024/03/11 08:58:28;;;;;;;;;;;;;;;;;;137871;1270;23085;-81
2024/03/11 09:01:29;;;;;;;;;;;;;;;;;;137814;1270;22610;-82
2024/03/11 09:04:33;;;;;;;;;;;;;;;;;;137672;1270;22524;-80
2024/03/11 09:07:35;;;;;;;;;;;;;;;;;;137839;1270;22438;-82
2024/03/11 09:10:36;;;;;;;;;;;;;;;;;;137849;1270;22313;-79
2024/03/11 09:13:40;;;;;;;;;;;;;;;;;;137913;1270;22304;-82
2024/03/11 09:16:41;;;;;;;;;;;;;;;;;;137874;1266;22286;-79
2024/03/11 09:19:42;;;;;;;;;;;;;;;;;;137824;1270;22349;-79
2024/03/11 09:22:45;;;;;;;;;;;;;;;;;;137880;1260;22291;-79
2024/03/11 09:25:46;;;;;;;;;;;;;;;;;;137820;1270;22385;-81
2024/03/11 09:28:48;;;;;;;;;;;;;;;;;;137751;1270;22321;-80
2024/03/11 09:31:49;;;;;;;;;;;;;;;;;;137806;1270;22325;-81
2024/03/11 09:34:50;;;;;;;;;;;;;;;;;;137809;1270;22316;-80
2024/03/11 09:37:54;;;;;;;;;;;;;;;;;;137770;1267;22341;-79
2024/03/11 09:40:55;;;;;;;;;;;;;;;;;;137758;1263;22322;-81
2024/03/11 09:43:56;;;;;;;;;;;;;;;;;;137785;1264;22411;-83
2024/03/11 09:47:00;;;;;;;;;;;;;;;;;;137800;1270;22328;-81
2024/03/11 09:50:01;;;;;;;;;;;;;;;;;;137819;1270;22326;-81
2024/03/11 09:53:03;;;;;;;;;;;;;;;;;;137877;1270;22328;-81
2024/03/11 09:56:09;;;;;;;;;;;;;;;;;;137845;1270;22443;-80
2024/03/11 09:59:10;;;;;;;;;;;;;;;;;;137853;1270;22510;-81
2024/03/11 10:02:11;;;;;;;;;;;;;;;;;;137793;1270;22344;-81
2024/03/11 10:05:13;;;;;;;;;;;;;;;;;;137883;1270;22350;-81
2024/03/11 10:08:15;;;;;;;;;;;;;;;;;;137813;1270;22680;-80
2024/03/11 10:11:20;;;;;;;;;;;;;;;;;;137834;1270;22346;-80
2024/03/11 10:14:22;;;;;;;;;;;;;;;;;;137819;1270;22336;-79
2024/03/11 10:17:24;;;;;;;;;;;;;;;;;;137808;1270;22286;-79
2024/03/11 10:20:25;;;;;;;;;;;;;;;;;;137813;1270;22806;-80
2024/03/11 10:23:26;;;;;;;;;;;;;;;;;;137796;1270;22641;-79
2024/03/11 10:26:28;;;;;;;;;;;;;;;;;;137852;1270;22424;-80
2024/03/11 10:29:29;;;;;;;;;;;;;;;;;;137838;1270;22276;-80
2024/03/11 10:32:36;;;;;;;;;;;;;;;;;;137821;1270;22329;-80
2024/03/11 10:35:39;;;;;;;;;;;;;;;;;;137787;1270;22313;-80
2024/03/11 10:38:41;;;;;;;;;;;;;;;;;;137791;1270;22342;-79
2024/03/11 10:41:42;;;;;;;;;;;;;;;;;;137817;1270;23041;-80
2024/03/11 10:44:45;;;;;;;;;;;;;;;;;;137881;1270;22335;-80
2024/03/11 10:47:49;;;;;;;;;;;;;;;;;;137819;1270;22860;-80
2024/03/11 10:50:51;;;;;;;;;;;;;;;;;;137783;1270;22331;-78
2024/03/11 10:53:52;;;;;;;;;;;;;;;;;;137806;1270;22267;-77
2024/03/11 10:56:55;;;;;;;;;;;;;;;;;;137797;1270;22931;-78
2024/03/11 10:59:56;;;;;;;;;;;;;;;;;;137803;1270;22331;-78
2024/03/11 11:02:57;;;;;;;;;;;;;;;;;;137823;1270;22308;-79
2024/03/11 11:06:00;;;;;;;;;;;;;;;;;;137828;1270;22277;-78
2024/03/11 11:09:11;;;;;;;;;;;;;;;;;;137835;1270;22468;-78
2024/03/11 11:12:12;;;;;;;;;;;;;;;;;;137829;1270;22405;-78
2024/03/11 11:15:14;;;;;;;;;;;;;;;;;;137802;1270;22448;-78
2024/03/11 11:18:16;;;;;;;;;;;;;;;;;;137855;1270;22421;-77
2024/03/11 11:21:17;;;;;;;;;;;;;;;;;;137802;1270;22308;-78
2024/03/11 11:24:18;;;;;;;;;;;;;;;;;;137878;1270;22382;-78
2024/03/11 11:27:19;;;;;;;;;;;;;;;;;;137841;1270;22364;-79
2024/03/11 11:30:24;;;;;;;;;;;;;;;;;;137795;1270;22777;-78
2024/03/11 11:33:25;;;;;;;;;;;;;;;;;;137790;1262;22379;-79
2024/03/11 11:36:26;;;;;;;;;;;;;;;;;;137865;1270;22786;-77
2024/03/11 11:39:27;;;;;;;;;;;;;;;;;;137805;1270;22340;-78
2024/03/11 11:42:28;;;;;;;;;;;;;;;;;;137866;1270;22298;-80
2024/03/11 11:45:30;;;;;;;;;;;;;;;;;;137865;1270;22412;-77
2024/03/11 11:48:31;;;;;;;;;;;;;;;;;;137831;1270;22335;-78
2024/03/11 11:51:32;;;;;;;;;;;;;;;;;;137787;1270;22300;-78
2024/03/11 11:54:34;;;;;;;;;;;;;;;;;;137755;1262;22293;-78
2024/03/11 11:57:37;;;;;;;;;;;;;;;;;;137782;1270;23184;-78
2024/03/11 12:00:40;;;;;;;;;;;;;;;;;;137806;1270;22660;-78
2024/03/11 12:03:43;;;;;;;;;;;;;;;;;;137681;1270;22521;-79
2024/03/11 12:06:46;;;;;;;;;;;;;;;;;;137828;1270;22685;-78
2024/03/11 12:09:47;;;;;;;;;;;;;;;;;;137839;1270;22335;-78
2024/03/11 12:12:49;;;;;;;;;;;;;;;;;;137825;1270;22314;-78
2024/03/11 12:15:51;;;;;;;;;;;;;;;;;;137808;1270;22927;-77
2024/03/11 12:18:52;;;;;;;;;;;;;;;;;;137822;1270;22745;-78
2024/03/11 12:21:53;;;;;;;;;;;;;;;;;;137811;1262;22337;-80
2024/03/11 12:24:54;;;;;;;;;;;;;;;;;;137828;1270;22355;-78
2024/03/11 12:27:56;;;;;;;;;;;;;;;;;;137814;1270;22385;-79
2024/03/11 12:30:59;;;;;;;;;;;;;;;;;;137851;1270;22306;-80
2024/03/11 12:34:01;;;;;;;;;;;;;;;;;;137862;1270;22303;-81
2024/03/11 12:37:02;;;;;;;;;;;;;;;;;;137826;1270;22273;-79
2024/03/11 12:40:07;;;;;;;;;;;;;;;;;;137852;1270;22474;-81
2024/03/11 12:43:08;;;;;;;;;;;;;;;;;;137802;1270;22297;-79
2024/03/11 12:46:10;;;;;;;;;;;;;;;;;;137835;1270;22310;-79
2024/03/11 12:49:11;;;;;;;;;;;;;;;;;;137797;1270;22668;-78
2024/03/11 12:52:13;;;;;;;;;;;;;;;;;;137791;1270;22328;-78
2024/03/11 12:55:16;;;;;;;;;;;;;;;;;;137830;1270;22378;-79
2024/03/11 12:58:18;;;;;;;;;;;;;;;;;;137752;1270;22397;-81
2024/03/11 13:01:20;;;;;;;;;;;;;;;;;;137711;1269;22334;-79
2024/03/11 13:04:21;;;;;;;;;;;;;;;;;;137836;1270;22283;-81
2024/03/11 13:07:23;;;;;;;;;;;;;;;;;;137851;1270;22293;-80
2024/03/11 13:10:24;;;;;;;;;;;;;;;;;;137791;1270;22388;-79
2024/03/11 13:13:26;;;;;;;;;;;;;;;;;;137791;1270;22362;-80
2024/03/11 13:16:27;;;;;;;;;;;;;;;;;;137822;1270;22269;-79
2024/03/11 13:19:31;;;;;;;;;;;;;;;;;;137801;1270;22386;-79
2024/03/11 13:22:33;;;;;;;;;;;;;;;;;;137932;1270;22290;-79
2024/03/11 13:25:34;;;;;;;;;;;;;;;;;;137861;1270;22673;-78
2024/03/11 13:28:35;;;;;;;;;;;;;;;;;;137735;1270;22932;-78
2024/03/11 13:31:37;;;;;;;;;;;;;;;;;;137760;1270;23189;-78
2024/03/11 13:34:38;;;;;;;;;;;;;;;;;;137749;1270;22731;-79
2024/03/11 13:37:39;;;;;;;;;;;;;;;;;;137733;1270;22435;-79
2024/03/11 13:40:40;;;;;;;;;;;;;;;;;;137759;1270;22326;-78
2024/03/11 13:43:42;;;;;;;;;;;;;;;;;;137795;1270;22319;-80
2024/03/11 13:46:46;;;;;;;;;;;;;;;;;;137783;1270;22875;-80
2024/03/11 13:49:49;;;;;;;;;;;;;;;;;;137752;1270;22313;-80
2024/03/11 13:52:51;;;;;;;;;;;;;;;;;;137769;1270;22309;-79
2024/03/11 13:55:52;;;;;;;;;;;;;;;;;;137760;1270;22481;-79
2024/03/11 13:58:53;;;;;;;;;;;;;;;;;;137742;1262;22393;-79
2024/03/11 14:01:54;;;;;;;;;;;;;;;;;;137793;1270;22265;-79
2024/03/11 14:04:56;;;;;;;;;;;;;;;;;;137812;1270;23171;-79
2024/03/11 14:07:57;;;;;;;;;;;;;;;;;;137741;1270;22498;-81
2024/03/11 14:10:59;;;;;;;;;;;;;;;;;;137802;1270;22342;-81
2024/03/11 14:14:02;;;;;;;;;;;;;;;;;;137855;1270;22293;-81
2024/03/11 14:17:03;;;;;;;;;;;;;;;;;;137818;1270;22326;-81
2024/03/11 14:20:05;;;;;;;;;;;;;;;;;;137813;1270;22307;-80
2024/03/11 14:23:06;;;;;;;;;;;;;;;;;;137717;1270;22388;-79
2024/03/11 14:26:10;;;;;;;;;;;;;;;;;;137780;1270;22397;-79
2024/03/11 14:29:14;;;;;;;;;;;;;;;;;;137754;1270;22326;-77
2024/03/11 14:32:15;;;;;;;;;;;;;;;;;;137686;1270;23075;-77
2024/03/11 14:35:17;;;;;;;;;;;;;;;;;;137700;1270;22337;-76
2024/03/11 14:38:19;;;;;;;;;;;;;;;;;;137750;1270;22757;-77
2024/03/11 14:41:20;;;;;;;;;;;;;;;;;;137805;1270;22304;-80
2024/03/11 14:44:21;;;;;;;;;;;;;;;;;;137867;1270;22803;-80
2024/03/11 14:47:24;;;;;;;;;;;;;;;;;;137867;1270;22426;-78
2024/03/11 14:50:29;;;;;;;;;;;;;;;;;;137844;1256;22300;-78
2024/03/11 14:53:31;;;;;;;;;;;;;;;;;;137815;1270;22347;-79
2024/03/11 14:56:35;;;;;;;;;;;;;;;;;;137878;1270;23057;-78
2024/03/11 14:59:36;;;;;;;;;;;;;;;;;;137863;1270;22348;-79
2024/03/11 15:02:37;;;;;;;;;;;;;;;;;;137873;1270;22400;-79
2024/03/11 15:05:43;;;;;;;;;;;;;;;;;;137777;1270;22337;-79
2024/03/11 15:08:45;;;;;;;;;;;;;;;;;;137829;1270;22338;-79
2024/03/11 15:11:46;;;;;;;;;;;;;;;;;;137807;1270;22910;-79
2024/03/11 15:14:47;;;;;;;;;;;;;;;;;;137855;1270;22336;-79
2024/03/11 15:17:51;;;;;;;;;;;;;;;;;;137899;1270;22330;-80
2024/03/11 15:20:52;;;;;;;;;;;;;;;;;;137904;1270;22409;-79
2024/03/11 15:23:54;;;;;;;;;;;;;;;;;;137923;1266;22395;-79
2024/03/11 15:26:55;;;;;;;;;;;;;;;;;;137924;1270;22416;-79
2024/03/11 15:29:58;;;;;;;;;;;;;;;;;;137861;1270;22396;-79
2024/03/11 15:32:59;;;;;;;;;;;;;;;;;;137854;1270;22358;-79
2024/03/11 15:36:00;;;;;;;;;;;;;;;;;;137901;1270;22775;-77
2024/03/11 15:39:03;;;;;;;;;;;;;;;;;;137924;1270;22397;-79
2024/03/11 15:42:06;;;;;;;;;;;;;;;;;;137903;1270;22304;-79
2024/03/11 15:45:07;;;;;;;;;;;;;;;;;;137883;1270;22307;-79
2024/03/11 15:48:09;;;;;;;;;;;;;;;;;;137866;1270;22315;-80
2024/03/11 15:51:14;;;;;;;;;;;;;;;;;;137866;1264;22333;-80
2024/03/11 15:54:16;;;;;;;;;;;;;;;;;;137892;1270;22317;-82
2024/03/11 15:57:21;;;;;;;;;;;;;;;;;;137885;1270;22393;-79
2024/03/11 16:00:27;;;;;;;;;;;;;;;;;;137916;1270;22447;-78
2024/03/11 16:03:30;;;;;;;;;;;;;;;;;;137927;1270;22374;-79
2024/03/11 16:06:31;;;;;;;;;;;;;;;;;;137894;1270;22598;-79
2024/03/11 16:12:49;;;;;;;;;;;;;;;;;;137777;1270;22492;-80
2024/03/11 16:15:51;;;;;;;;;;;;;;;;;;137862;1270;22496;-80
2024/03/11 16:18:52;;;;;;;;;;;;;;;;;;137988;1270;22512;-80
2024/03/11 16:21:53;;;;;;;;;;;;;;;;;;137882;1270;22518;-79
2024/03/11 16:24:55;;;;;;;;;;;;;;;;;;138023;1270;22323;-80
2024/03/11 16:27:58;;;;;;;;;;;;;;;;;;138047;1270;22392;-82
2024/03/11 16:30:59;;;;;;;;;;;;;;;;;;137995;1270;22317;-80
2024/03/11 16:34:01;;;;;;;;;;;;;;;;;;137920;1270;22270;-80
2024/03/11 16:37:04;;;;;;;;;;;;;;;;;;137996;1270;22629;-81
2024/03/11 16:40:11;;;;;;;;;;;;;;;;;;137775;1271;22502;-83
2024/03/11 16:43:13;;;;;;;;;;;;;;;;;;137869;1270;22529;-83
2024/03/11 16:46:14;;;;;;;;;;;;;;;;;;137805;1270;22543;-83
2024/03/11 16:49:16;;;;;;;;;;;;;;;;;;137924;1270;22504;-84
2024/03/11 16:52:19;;;;;;;;;;;;;;;;;;137625;1268;22503;-83
2024/03/11 16:55:24;;;;;;;;;;;;;;;;;;137887;1270;22571;-83
2024/03/11 16:58:25;;;;;;;;;;;;;;;;;;137814;1270;22527;-84
2024/03/11 17:01:34;;;;;;;;;;;;;;;;;;137623;1270;22501;-84
2024/03/11 17:04:35;;;;;;;;;;;;;;;;;;137687;1271;22544;-83
2024/03/11 17:07:37;;;;;;;;;;;;;;;;;;137944;1270;22484;-83
2024/03/11 17:10:39;;;;;;;;;;;;;;;;;;137771;1270;22503;-82
2024/03/11 17:13:40;;;;;;;;;;;;;;;;;;137836;1270;22522;-82
2024/03/11 17:16:42;;;;;;;;;;;;;;;;;;137537;1270;22538;-82
2024/03/11 17:19:44;;;;;;;;;;;;;;;;;;137793;1270;22447;-83
2024/03/11 17:22:46;;;;;;;;;;;;;;;;;;137951;1271;22391;-82
2024/03/11 17:25:47;;;;;;;;;;;;;;;;;;137825;1270;22551;-83
2024/03/11 17:28:54;;;;;;;;;;;;;;;;;;137715;1270;22583;-82
2024/03/11 17:31:57;;;;;;;;;;;;;;;;;;137881;1270;22487;-83
2024/03/11 17:35:01;;;;;;;;;;;;;;;;;;137912;1270;22877;-84
2024/03/11 17:38:02;;;;;;;;;;;;;;;;;;137879;1271;22502;-83
2024/03/11 17:41:04;;;;;;;;;;;;;;;;;;137913;1270;22938;-84
2024/03/11 17:44:08;;;;;;;;;;;;;;;;;;137881;1270;22889;-83
2024/03/11 17:47:10;;;;;;;;;;;;;;;;;;137890;1271;22506;-84
2024/03/11 17:50:13;;;;;;;;;;;;;;;;;;137825;1270;22541;-83
2024/03/11 17:53:16;;;;;;;;;;;;;;;;;;137829;1270;23235;-82
2024/03/11 17:56:18;;;;;;;;;;;;;;;;;;137783;1270;22492;-83
2024/03/11 17:59:21;;;;;;;;;;;;;;;;;;137803;1265;22489;-82
2024/03/11 18:02:22;;;;;;;;;;;;;;;;;;137737;1270;22495;-82
2024/03/11 18:05:24;;;;;;;;;;;;;;;;;;137841;1271;22568;-82
2024/03/11 18:08:25;;;;;;;;;;;;;;;;;;137873;1270;22599;-83
2024/03/11 18:11:26;;;;;;;;;;;;;;;;;;137745;1266;22509;-83
2024/03/11 18:14:27;;;;;;;;;;;;;;;;;;137777;1270;22528;-83
2024/03/11 18:17:29;;;;;;;;;;;;;;;;;;137861;1270;23237;-81
2024/03/11 18:20:31;;;;;;;;;;;;;;;;;;137806;1270;22563;-82
2024/03/11 18:23:32;;;;;;;;;;;;;;;;;;137916;1270;22371;-83
2024/03/11 18:26:33;;;;;;;;;;;;;;;;;;137884;1270;22474;-82
2024/03/11 18:29:35;;;;;;;;;;;;;;;;;;137881;1259;22264;-81
2024/03/11 18:32:37;;;;;;;;;;;;;;;;;;137818;1271;22513;-81
2024/03/11 18:35:41;;;;;;;;;;;;;;;;;;137808;1270;22516;-81
2024/03/11 18:38:42;;;;;;;;;;;;;;;;;;137805;1259;22590;-82
2024/03/11 18:41:46;;;;;;;;;;;;;;;;;;135388;1270;3041428;-85
2024/03/11 18:44:48;;;;;;;;;;;;;;;;;;137810;1270;22881;-81
2024/03/11 18:47:50;;;;;;;;;;;;;;;;;;137901;1270;22303;-81
2024/03/11 18:50:51;;;;;;;;;;;;;;;;;;137859;1270;23212;-81
2024/03/11 18:53:53;;;;;;;;;;;;;;;;;;137889;1267;22905;-83
2024/03/11 18:56:55;;;;;;;;;;;;;;;;;;137865;1270;22537;-81
2024/03/11 18:59:56;;;;;;;;;;;;;;;;;;137941;1270;22534;-82
2024/03/11 19:02:58;;;;;;;;;;;;;;;;;;137768;1270;22507;-81
2024/03/11 19:06:00;;;;;;;;;;;;;;;;;;137850;1270;22511;-83
2024/03/11 19:09:01;;;;;;;;;;;;;;;;;;137813;1271;22544;-83
2024/03/11 19:12:04;;;;;;;;;;;;;;;;;;137798;1270;22493;-82
2024/03/11 19:15:10;;;;;;;;;;;;;;;;;;138003;1270;22353;-83
2024/03/11 19:18:15;;;;;;;;;;;;;;;;;;137909;1270;22460;-83
2024/03/11 19:21:16;;;;;;;;;;;;;;;;;;137845;1270;22509;-84
2024/03/11 19:24:23;;;;;;;;;;;;;;;;;;137964;1270;22499;-83
2024/03/11 19:27:25;;;;;;;;;;;;;;;;;;138096;1271;22416;-82
2024/03/11 19:30:31;;;;;;;;;;;;;;;;;;137926;1270;22541;-82
2024/03/11 19:33:32;;;;;;;;;;;;;;;;;;137966;1270;22526;-82
2024/03/11 19:36:33;;;;;;;;;;;;;;;;;;137454;1270;22508;-81
2024/03/11 19:39:35;;;;;;;;;;;;;;;;;;137763;1270;22477;-82
2024/03/11 19:42:37;;;;;;;;;;;;;;;;;;137992;1271;22466;-83
2024/03/11 19:45:38;;;;;;;;;;;;;;;;;;138083;1270;22312;-84
2024/03/11 19:48:39;;;;;;;;;;;;;;;;;;137944;1271;22335;-83
2024/03/11 19:51:42;;;;;;;;;;;;;;;;;;137756;1271;22348;-81
2024/03/11 19:54:43;;;;;;;;;;;;;;;;;;137879;1270;22394;-81
2024/03/11 19:57:44;;;;;;;;;;;;;;;;;;137906;1266;22449;-81
2024/03/11 20:00:45;;;;;;;;;;;;;;;;;;137887;1271;22525;-81
2024/03/11 20:03:47;;;;;;;;;;;;;;;;;;137877;1271;22308;-80
2024/03/11 20:06:48;;;;;;;;;;;;;;;;;;137912;1270;22350;-80
2024/03/11 20:09:49;;;;;;;;;;;;;;;;;;137860;1265;22424;-81
2024/03/11 20:12:51;;;;;;;;;;;;;;;;;;137891;1265;22314;-81
2024/03/11 20:15:53;;;;;;;;;;;;;;;;;;137875;1270;22323;-80
2024/03/11 20:18:55;;;;;;;;;;;;;;;;;;137812;1270;22503;-79
2024/03/11 20:21:57;;;;;;;;;;;;;;;;;;137840;1270;22333;-79
2024/03/11 20:24:58;;;;;;;;;;;;;;;;;;137838;1270;22938;-79